sensor_id;sensor_type;location;lat;lon;timestamp;pressure;altitude;pressure_sealevel;temperature;humidity
68329;BME280;55182;56.864;60.554;2023-04-24T00:00:20;75186.44;;;-143.60;64.57
68329;BME280;55182;56.864;60.554;2023-04-24T00:02:45;75190.44;;;-143.60;65.02
68329;BME280;55182;56.864;60.554;2023-04-24T00:05:11;75194.47;;;-143.60;64.99
68329;BME280;55182;56.864;60.554;2023-04-24T00:07:36;75202.50;;;-143.60;64.47
68329;BME280;55182;56.864;60.554;2023-04-24T00:10:02;75194.47;;;-143.60;64.98
68329;BME280;55182;56.864;60.554;2023-04-24T00:12:27;75202.50;;;-143.60;65.21
68329;BME280;55182;56.864;60.554;2023-04-24T00:14:53;75218.56;;;-143.60;66.33
68329;BME280;55182;56.864;60.554;2023-04-24T00:17:18;75220.59;;;-143.60;66.04
68329;BME280;55182;56.864;60.554;2023-04-24T00:19:44;75218.56;;;-143.60;65.71
68329;BME280;55182;56.864;60.554;2023-04-24T00:22:09;75234.66;;;-143.60;65.49
68329;BME280;55182;56.864;60.554;2023-04-24T00:24:35;75236.66;;;-143.60;65.11
68329;BME280;55182;56.864;60.554;2023-04-24T00:27:00;75232.63;;;-143.60;64.86
68329;BME280;55182;56.864;60.554;2023-04-24T00:29:26;75230.63;;;-143.60;64.28
68329;BME280;55182;56.864;60.554;2023-04-24T00:31:51;75222.59;;;-143.60;64.37
68329;BME280;55182;56.864;60.554;2023-04-24T00:34:17;75218.56;;;-143.60;64.08
68329;BME280;55182;56.864;60.554;2023-04-24T00:36:42;75206.53;;;-143.60;63.75
68329;BME280;55182;56.864;60.554;2023-04-24T00:39:08;75210.53;;;-143.60;63.77
68329;BME280;55182;56.864;60.554;2023-04-24T00:41:33;75216.56;;;-143.60;64.22
68329;BME280;55182;56.864;60.554;2023-04-24T00:43:58;75210.53;;;-143.60;63.81
68329;BME280;55182;56.864;60.554;2023-04-24T00:46:24;75210.53;;;-143.60;63.38
68329;BME280;55182;56.864;60.554;2023-04-24T00:48:49;75206.53;;;-143.60;62.77
68329;BME280;55182;56.864;60.554;2023-04-24T00:51:16;75200.50;;;-143.60;62.96
68329;BME280;55182;56.864;60.554;2023-04-24T00:53:41;75212.53;;;-143.60;63.19
68329;BME280;55182;56.864;60.554;2023-04-24T00:56:07;75218.56;;;-143.60;63.27
68329;BME280;55182;56.864;60.554;2023-04-24T00:58:32;75222.59;;;-143.60;63.46
68329;BME280;55182;56.864;60.554;2023-04-24T01:00:58;75226.59;;;-143.60;63.12
68329;BME280;55182;56.864;60.554;2023-04-24T01:03:28;75222.59;;;-143.60;62.93
68329;BME280;55182;56.864;60.554;2023-04-24T01:05:54;75224.59;;;-143.60;62.81
68329;BME280;55182;56.864;60.554;2023-04-24T01:08:20;75232.63;;;-143.60;62.86
68329;BME280;55182;56.864;60.554;2023-04-24T01:10:46;75226.59;;;-143.60;62.57
68329;BME280;55182;56.864;60.554;2023-04-24T01:13:12;75228.63;;;-143.60;62.62
68329;BME280;55182;56.864;60.554;2023-04-24T01:15:38;75218.56;;;-143.60;62.12
68329;BME280;55182;56.864;60.554;2023-04-24T01:18:03;75222.59;;;-143.60;62.22
68329;BME280;55182;56.864;60.554;2023-04-24T01:20:29;75226.59;;;-143.60;62.28
68329;BME280;55182;56.864;60.554;2023-04-24T01:22:55;75226.59;;;-143.60;62.96
68329;BME280;55182;56.864;60.554;2023-04-24T01:25:22;75238.66;;;-143.60;62.80
68329;BME280;55182;56.864;60.554;2023-04-24T01:27:48;75250.72;;;-143.60;63.04
68329;BME280;55182;56.864;60.554;2023-04-24T01:30:13;75266.78;;;-143.60;63.54
68329;BME280;55182;56.864;60.554;2023-04-24T01:32:39;75286.88;;;-143.60;64.08
68329;BME280;55182;56.864;60.554;2023-04-24T01:35:05;75298.94;;;-143.60;63.96
68329;BME280;55182;56.864;60.554;2023-04-24T01:37:31;75311.00;;;-143.60;64.03
68329;BME280;55182;56.864;60.554;2023-04-24T01:39:57;75304.97;;;-143.60;64.01
68329;BME280;55182;56.864;60.554;2023-04-24T01:42:24;75300.94;;;-143.60;64.28
68329;BME280;55182;56.864;60.554;2023-04-24T01:44:50;75300.94;;;-143.60;64.35
68329;BME280;55182;56.864;60.554;2023-04-24T01:47:16;75302.94;;;-143.60;64.31
68329;BME280;55182;56.864;60.554;2023-04-24T01:49:41;75304.97;;;-143.60;64.34
68329;BME280;55182;56.864;60.554;2023-04-24T01:52:07;75302.94;;;-143.60;64.06
68329;BME280;55182;56.864;60.554;2023-04-24T01:54:32;75304.97;;;-143.60;64.97
68329;BME280;55182;56.864;60.554;2023-04-24T01:56:58;75298.94;;;-143.60;65.23
68329;BME280;55182;56.864;60.554;2023-04-24T01:59:24;75292.91;;;-143.60;64.98
68329;BME280;55182;56.864;60.554;2023-04-24T02:01:50;75278.84;;;-143.60;65.39
68329;BME280;55182;56.864;60.554;2023-04-24T02:04:18;75264.78;;;-143.60;65.14
68329;BME280;55182;56.864;60.554;2023-04-24T02:06:43;75274.81;;;-143.60;65.19
68329;BME280;55182;56.864;60.554;2023-04-24T02:09:10;75274.81;;;-143.60;65.04
68329;BME280;55182;56.864;60.554;2023-04-24T02:11:35;75282.88;;;-143.60;65.45
68329;BME280;55182;56.864;60.554;2023-04-24T02:14:00;75282.88;;;-143.60;65.20
68329;BME280;55182;56.864;60.554;2023-04-24T02:16:27;75286.88;;;-143.60;65.47
68329;BME280;55182;56.864;60.554;2023-04-24T02:18:53;75282.88;;;-143.60;65.41
68329;BME280;55182;56.864;60.554;2023-04-24T02:21:18;75292.91;;;-143.60;65.82
68329;BME280;55182;56.864;60.554;2023-04-24T02:23:44;75282.88;;;-143.60;65.75
68329;BME280;55182;56.864;60.554;2023-04-24T02:26:11;75274.81;;;-143.60;64.73
68329;BME280;55182;56.864;60.554;2023-04-24T02:28:37;75264.78;;;-143.60;64.29
68329;BME280;55182;56.864;60.554;2023-04-24T02:31:02;75274.81;;;-143.60;63.60
68329;BME280;55182;56.864;60.554;2023-04-24T02:33:28;75262.78;;;-143.60;63.28
68329;BME280;55182;56.864;60.554;2023-04-24T02:35:54;75258.75;;;-143.60;62.84
68329;BME280;55182;56.864;60.554;2023-04-24T02:38:20;75242.69;;;-143.60;62.74
68329;BME280;55182;56.864;60.554;2023-04-24T02:40:46;75232.63;;;-143.60;62.24
68329;BME280;55182;56.864;60.554;2023-04-24T02:43:11;75226.59;;;-143.60;61.56
68329;BME280;55182;56.864;60.554;2023-04-24T02:45:37;75230.63;;;-143.60;61.66
68329;BME280;55182;56.864;60.554;2023-04-24T02:48:03;75218.56;;;-143.60;61.42
68329;BME280;55182;56.864;60.554;2023-04-24T02:50:29;75218.56;;;-143.60;61.26
68329;BME280;55182;56.864;60.554;2023-04-24T02:52:54;75212.53;;;-143.60;61.25
68329;BME280;55182;56.864;60.554;2023-04-24T02:55:20;75206.53;;;-143.60;61.98
68329;BME280;55182;56.864;60.554;2023-04-24T02:57:46;75206.53;;;-143.60;62.06
68329;BME280;55182;56.864;60.554;2023-04-24T03:00:11;75204.50;;;-143.60;62.34
68329;BME280;55182;56.864;60.554;2023-04-24T03:02:37;75202.50;;;-143.60;62.13
68329;BME280;55182;56.864;60.554;2023-04-24T03:05:03;75188.44;;;-143.60;61.75
68329;BME280;55182;56.864;60.554;2023-04-24T03:07:30;75182.41;;;-143.60;61.80
68329;BME280;55182;56.864;60.554;2023-04-24T03:09:55;75178.41;;;-143.60;61.28
68329;BME280;55182;56.864;60.554;2023-04-24T03:12:20;75164.34;;;-143.60;60.71
68329;BME280;55182;56.864;60.554;2023-04-24T03:14:47;75148.25;;;-143.60;60.45
68329;BME280;55182;56.864;60.554;2023-04-24T03:17:13;75130.19;;;-143.60;60.14
68329;BME280;55182;56.864;60.554;2023-04-24T03:19:38;75106.06;;;-143.60;60.06
68329;BME280;55182;56.864;60.554;2023-04-24T03:22:08;75081.97;;;-143.60;60.31
68329;BME280;55182;56.864;60.554;2023-04-24T03:24:36;75065.88;;;-143.60;59.10
68329;BME280;55182;56.864;60.554;2023-04-24T03:27:02;75061.88;;;-143.60;58.21
68329;BME280;55182;56.864;60.554;2023-04-24T03:29:47;75049.81;;;-143.60;58.27
68329;BME280;55182;56.864;60.554;2023-04-24T03:32:15;75037.75;;;-143.60;57.99
68329;BME280;55182;56.864;60.554;2023-04-24T03:34:40;75029.72;;;-143.60;57.10
68329;BME280;55182;56.864;60.554;2023-04-24T03:37:08;75025.72;;;-143.60;56.66
68329;BME280;55182;56.864;60.554;2023-04-24T03:39:37;75029.72;;;-143.60;55.25
68329;BME280;55182;56.864;60.554;2023-04-24T03:42:03;75021.69;;;-143.60;55.28
68329;BME280;55182;56.864;60.554;2023-04-24T03:44:40;75021.69;;;-143.60;56.18
68329;BME280;55182;56.864;60.554;2023-04-24T03:47:06;75011.66;;;-143.60;56.21
68329;BME280;55182;56.864;60.554;2023-04-24T03:49:32;75013.66;;;-143.60;55.57
68329;BME280;55182;56.864;60.554;2023-04-24T03:51:57;75013.66;;;-143.60;56.07
68329;BME280;55182;56.864;60.554;2023-04-24T03:54:25;75019.69;;;-143.60;55.67
68329;BME280;55182;56.864;60.554;2023-04-24T03:56:52;75015.66;;;-143.60;54.99
68329;BME280;55182;56.864;60.554;2023-04-24T03:59:18;75019.69;;;-143.60;54.91
68329;BME280;55182;56.864;60.554;2023-04-24T04:01:49;75013.66;;;-143.60;55.21
68329;BME280;55182;56.864;60.554;2023-04-24T04:04:16;75009.63;;;-143.60;55.93
68329;BME280;55182;56.864;60.554;2023-04-24T04:06:43;75001.59;;;-143.60;55.75
68329;BME280;55182;56.864;60.554;2023-04-24T04:09:09;74995.56;;;-143.60;55.81
68329;BME280;55182;56.864;60.554;2023-04-24T04:11:36;74993.56;;;-143.60;54.29
68329;BME280;55182;56.864;60.554;2023-04-24T04:14:01;74985.53;;;-143.60;53.75
68329;BME280;55182;56.864;60.554;2023-04-24T04:16:27;74979.50;;;-143.60;53.78
68329;BME280;55182;56.864;60.554;2023-04-24T04:18:59;74967.44;;;-143.60;53.86
68329;BME280;55182;56.864;60.554;2023-04-24T04:21:25;74953.41;;;-143.60;53.84
68329;BME280;55182;56.864;60.554;2023-04-24T04:23:56;74937.31;;;-143.60;53.10
68329;BME280;55182;56.864;60.554;2023-04-24T04:26:29;74919.25;;;-143.60;52.25
68329;BME280;55182;56.864;60.554;2023-04-24T04:29:02;74905.19;;;-143.60;51.60
68329;BME280;55182;56.864;60.554;2023-04-24T04:31:28;74895.13;;;-143.60;51.16
68329;BME280;55182;56.864;60.554;2023-04-24T04:33:56;74881.06;;;-143.60;50.97
68329;BME280;55182;56.864;60.554;2023-04-24T04:36:22;74873.03;;;-143.60;50.61
68329;BME280;55182;56.864;60.554;2023-04-24T04:38:53;74856.97;;;-143.60;49.84
68329;BME280;55182;56.864;60.554;2023-04-24T04:41:39;74846.91;;;-143.60;49.29
68329;BME280;55182;56.864;60.554;2023-04-24T04:44:05;74838.88;;;-143.60;49.03
68329;BME280;55182;56.864;60.554;2023-04-24T04:46:31;74824.81;;;-143.60;49.51
68329;BME280;55182;56.864;60.554;2023-04-24T04:49:05;74814.78;;;-143.60;49.92
68329;BME280;55182;56.864;60.554;2023-04-24T04:51:30;74800.72;;;-143.60;49.11
68329;BME280;55182;56.864;60.554;2023-04-24T04:53:56;74784.66;;;-143.60;47.82
68329;BME280;55182;56.864;60.554;2023-04-24T04:56:22;74762.56;;;-143.60;48.11
68329;BME280;55182;56.864;60.554;2023-04-24T04:58:48;74752.50;;;-143.60;47.82
68329;BME280;55182;56.864;60.554;2023-04-24T05:01:16;74732.41;;;-143.60;47.42
68329;BME280;55182;56.864;60.554;2023-04-24T05:03:45;74716.34;;;-143.60;47.19
68329;BME280;55182;56.864;60.554;2023-04-24T05:06:13;74696.25;;;-143.60;47.09
68329;BME280;55182;56.864;60.554;2023-04-24T05:08:39;74674.16;;;-143.60;46.12
68329;BME280;55182;56.864;60.554;2023-04-24T05:11:09;74654.06;;;-143.60;46.58
68329;BME280;55182;56.864;60.554;2023-04-24T05:13:36;74615.91;;;-143.60;45.40
68329;BME280;55182;56.864;60.554;2023-04-24T05:16:05;74593.81;;;-143.60;44.54
68329;BME280;55182;56.864;60.554;2023-04-24T05:18:32;74571.72;;;-143.60;43.26
68329;BME280;55182;56.864;60.554;2023-04-24T05:20:58;74559.66;;;-143.60;42.89
68329;BME280;55182;56.864;60.554;2023-04-24T05:23:24;74539.59;;;-143.60;42.83
68329;BME280;55182;56.864;60.554;2023-04-24T05:25:52;74521.50;;;-143.60;42.73
68329;BME280;55182;56.864;60.554;2023-04-24T05:28:19;74513.47;;;-143.60;42.60
68329;BME280;55182;56.864;60.554;2023-04-24T05:30:50;74491.38;;;-143.60;42.46
68329;BME280;55182;56.864;60.554;2023-04-24T05:33:16;74485.34;;;-143.60;42.44
68329;BME280;55182;56.864;60.554;2023-04-24T05:35:41;74471.28;;;-143.60;41.92
68329;BME280;55182;56.864;60.554;2023-04-24T05:38:07;74467.28;;;-143.60;41.95
68329;BME280;55182;56.864;60.554;2023-04-24T05:40:32;74463.25;;;-143.60;41.97
68329;BME280;55182;56.864;60.554;2023-04-24T05:42:58;74467.28;;;-143.60;41.92
68329;BME280;55182;56.864;60.554;2023-04-24T05:45:24;74469.28;;;-143.60;42.31
68329;BME280;55182;56.864;60.554;2023-04-24T05:47:50;74461.25;;;-143.60;42.03
68329;BME280;55182;56.864;60.554;2023-04-24T05:50:15;74447.19;;;-143.60;41.98
68329;BME280;55182;56.864;60.554;2023-04-24T05:52:41;74445.19;;;-143.60;42.69
68329;BME280;55182;56.864;60.554;2023-04-24T05:55:20;74461.25;;;-143.60;42.32
68329;BME280;55182;56.864;60.554;2023-04-24T05:57:47;74453.22;;;-143.60;41.58
68329;BME280;55182;56.864;60.554;2023-04-24T06:00:12;74471.28;;;-143.60;41.39
68329;BME280;55182;56.864;60.554;2023-04-24T06:02:53;74479.31;;;-143.60;42.07
68329;BME280;55182;56.864;60.554;2023-04-24T06:05:20;74473.28;;;-143.60;42.49
68329;BME280;55182;56.864;60.554;2023-04-24T06:07:46;74469.28;;;-143.60;42.45
68329;BME280;55182;56.864;60.554;2023-04-24T06:10:12;74471.28;;;-143.60;42.06
68329;BME280;55182;56.864;60.554;2023-04-24T06:12:41;74467.28;;;-143.60;41.84
68329;BME280;55182;56.864;60.554;2023-04-24T06:15:13;74467.28;;;-143.60;41.68
68329;BME280;55182;56.864;60.554;2023-04-24T06:18:08;74459.25;;;-143.60;41.88
68329;BME280;55182;56.864;60.554;2023-04-24T06:20:35;74451.19;;;-143.60;42.14
68329;BME280;55182;56.864;60.554;2023-04-24T06:23:01;74451.19;;;-143.60;41.94
68329;BME280;55182;56.864;60.554;2023-04-24T06:25:27;74447.19;;;-143.60;42.42
68329;BME280;55182;56.864;60.554;2023-04-24T06:27:53;74443.16;;;-143.60;42.60
68329;BME280;55182;56.864;60.554;2023-04-24T06:30:18;74447.19;;;-143.60;43.39
68329;BME280;55182;56.864;60.554;2023-04-24T06:32:44;74447.19;;;-143.60;44.02
68329;BME280;55182;56.864;60.554;2023-04-24T06:35:09;74441.16;;;-143.60;43.96
68329;BME280;55182;56.864;60.554;2023-04-24T06:37:35;74431.13;;;-143.60;44.46
68329;BME280;55182;56.864;60.554;2023-04-24T06:40:01;74415.03;;;-143.60;43.81
68329;BME280;55182;56.864;60.554;2023-04-24T06:42:26;74407.00;;;-143.60;43.97
68329;BME280;55182;56.864;60.554;2023-04-24T06:44:52;74405.00;;;-143.60;43.31
68329;BME280;55182;56.864;60.554;2023-04-24T06:47:17;74401.00;;;-143.60;42.17
68329;BME280;55182;56.864;60.554;2023-04-24T06:49:43;74407.00;;;-143.60;42.93
68329;BME280;55182;56.864;60.554;2023-04-24T06:52:09;74392.94;;;-143.60;43.27
68329;BME280;55182;56.864;60.554;2023-04-24T06:54:35;74382.91;;;-143.60;43.51
68329;BME280;55182;56.864;60.554;2023-04-24T06:57:00;74390.94;;;-143.60;43.71
68329;BME280;55182;56.864;60.554;2023-04-24T06:59:26;74394.97;;;-143.60;42.79
68329;BME280;55182;56.864;60.554;2023-04-24T07:01:52;74390.94;;;-143.60;43.01
68329;BME280;55182;56.864;60.554;2023-04-24T07:04:18;74386.94;;;-143.60;43.52
68329;BME280;55182;56.864;60.554;2023-04-24T07:06:47;74398.97;;;-143.60;43.84
68329;BME280;55182;56.864;60.554;2023-04-24T07:09:13;74409.03;;;-143.60;43.60
68329;BME280;55182;56.864;60.554;2023-04-24T07:11:39;74423.09;;;-143.60;43.82
68329;BME280;55182;56.864;60.554;2023-04-24T07:14:05;74415.03;;;-143.60;43.95
68329;BME280;55182;56.864;60.554;2023-04-24T07:16:30;74421.06;;;-143.60;44.45
68329;BME280;55182;56.864;60.554;2023-04-24T07:18:56;74427.09;;;-143.60;44.43
68329;BME280;55182;56.864;60.554;2023-04-24T07:21:22;74439.16;;;-143.60;44.84
68329;BME280;55182;56.864;60.554;2023-04-24T07:23:48;74437.13;;;-143.60;44.83
68329;BME280;55182;56.864;60.554;2023-04-24T07:26:14;74427.09;;;-143.60;44.97
68329;BME280;55182;56.864;60.554;2023-04-24T07:28:40;74405.00;;;-143.60;44.67
68329;BME280;55182;56.864;60.554;2023-04-24T07:31:07;74411.03;;;-143.60;46.27
68329;BME280;55182;56.864;60.554;2023-04-24T07:33:33;74390.94;;;-143.60;45.29
68329;BME280;55182;56.864;60.554;2023-04-24T07:35:59;74390.94;;;-143.60;45.89
68329;BME280;55182;56.864;60.554;2023-04-24T07:38:25;74386.94;;;-143.60;46.03
68329;BME280;55182;56.864;60.554;2023-04-24T07:40:51;74394.97;;;-143.60;45.93
68329;BME280;55182;56.864;60.554;2023-04-24T07:43:17;74398.97;;;-143.60;46.48
68329;BME280;55182;56.864;60.554;2023-04-24T07:45:43;74401.00;;;-143.60;46.15
68329;BME280;55182;56.864;60.554;2023-04-24T07:48:09;74415.03;;;-143.60;46.41
68329;BME280;55182;56.864;60.554;2023-04-24T07:50:34;74429.09;;;-143.60;46.58
68329;BME280;55182;56.864;60.554;2023-04-24T07:53:00;74423.09;;;-143.60;46.91
68329;BME280;55182;56.864;60.554;2023-04-24T07:55:25;74421.06;;;-143.60;46.80
68329;BME280;55182;56.864;60.554;2023-04-24T07:57:51;74429.09;;;-143.60;47.01
68329;BME280;55182;56.864;60.554;2023-04-24T08:00:16;74419.06;;;-143.60;46.98
68329;BME280;55182;56.864;60.554;2023-04-24T08:02:42;74415.03;;;-143.60;46.88
68329;BME280;55182;56.864;60.554;2023-04-24T08:05:07;74398.97;;;-143.60;47.28
68329;BME280;55182;56.864;60.554;2023-04-24T08:07:33;74390.94;;;-143.60;47.03
68329;BME280;55182;56.864;60.554;2023-04-24T08:09:58;74388.94;;;-143.60;46.98
68329;BME280;55182;56.864;60.554;2023-04-24T08:12:24;74382.91;;;-143.60;47.47
68329;BME280;55182;56.864;60.554;2023-04-24T08:14:49;74394.97;;;-143.60;48.01
68329;BME280;55182;56.864;60.554;2023-04-24T08:17:16;74396.97;;;-143.60;48.05
68329;BME280;55182;56.864;60.554;2023-04-24T08:19:41;74386.94;;;-143.60;48.93
68329;BME280;55182;56.864;60.554;2023-04-24T08:22:06;74382.91;;;-143.60;49.51
68329;BME280;55182;56.864;60.554;2023-04-24T08:24:32;74376.88;;;-143.60;50.03
68329;BME280;55182;56.864;60.554;2023-04-24T08:26:57;74370.84;;;-143.60;49.90
68329;BME280;55182;56.864;60.554;2023-04-24T08:29:23;74380.91;;;-143.60;50.26
68329;BME280;55182;56.864;60.554;2023-04-24T08:31:48;74382.91;;;-143.60;50.71
68329;BME280;55182;56.864;60.554;2023-04-24T08:34:14;74409.03;;;-143.60;50.69
68329;BME280;55182;56.864;60.554;2023-04-24T08:36:39;74437.13;;;-143.60;51.19
68329;BME280;55182;56.864;60.554;2023-04-24T08:39:05;74463.25;;;-143.60;52.28
68329;BME280;55182;56.864;60.554;2023-04-24T08:41:30;74483.34;;;-143.60;50.92
68329;BME280;55182;56.864;60.554;2023-04-24T08:43:56;74511.47;;;-143.60;51.26
68329;BME280;55182;56.864;60.554;2023-04-24T08:46:21;74543.59;;;-143.60;51.39
68329;BME280;55182;56.864;60.554;2023-04-24T08:48:47;74567.72;;;-143.60;52.27
68329;BME280;55182;56.864;60.554;2023-04-24T08:51:13;74587.78;;;-143.60;52.66
68329;BME280;55182;56.864;60.554;2023-04-24T08:53:39;74599.84;;;-143.60;52.36
68329;BME280;55182;56.864;60.554;2023-04-24T08:56:05;74601.84;;;-143.60;51.92
68329;BME280;55182;56.864;60.554;2023-04-24T08:58:32;74615.91;;;-143.60;52.78
68329;BME280;55182;56.864;60.554;2023-04-24T09:00:58;74615.91;;;-143.60;53.60
68329;BME280;55182;56.864;60.554;2023-04-24T09:03:24;74613.91;;;-143.60;52.99
68329;BME280;55182;56.864;60.554;2023-04-24T09:05:52;74668.13;;;-143.60;54.53
68329;BME280;55182;56.864;60.554;2023-04-24T09:08:18;74734.44;;;-143.60;57.17
68329;BME280;55182;56.864;60.554;2023-04-24T09:10:44;74790.69;;;-143.60;58.89
68329;BME280;55182;56.864;60.554;2023-04-24T09:13:09;74850.94;;;-143.60;62.37
68329;BME280;55182;56.864;60.554;2023-04-24T09:15:36;74881.06;;;-143.60;64.29
68329;BME280;55182;56.864;60.554;2023-04-24T09:18:02;74881.06;;;-143.60;65.21
68329;BME280;55182;56.864;60.554;2023-04-24T09:20:28;74865.00;;;-143.60;64.36
68329;BME280;55182;56.864;60.554;2023-04-24T09:22:54;74836.88;;;-143.60;63.89
68329;BME280;55182;56.864;60.554;2023-04-24T09:25:19;74830.84;;;-143.60;62.59
68329;BME280;55182;56.864;60.554;2023-04-24T09:27:45;74840.91;;;-143.60;64.06
68329;BME280;55182;56.864;60.554;2023-04-24T09:30:11;74856.97;;;-143.60;65.11
68329;BME280;55182;56.864;60.554;2023-04-24T09:32:36;74850.94;;;-143.60;64.19
68329;BME280;55182;56.864;60.554;2023-04-24T09:35:06;74816.78;;;-143.60;62.88
68329;BME280;55182;56.864;60.554;2023-04-24T09:37:34;74780.63;;;-143.60;61.10
68329;BME280;55182;56.864;60.554;2023-04-24T09:40:10;74748.50;;;-143.60;60.66
68329;BME280;55182;56.864;60.554;2023-04-24T09:42:36;74736.44;;;-143.60;59.55
68329;BME280;55182;56.864;60.554;2023-04-24T09:45:02;74724.38;;;-143.60;58.06
68329;BME280;55182;56.864;60.554;2023-04-24T09:47:27;74704.28;;;-143.60;58.23
68329;BME280;55182;56.864;60.554;2023-04-24T09:50:01;74692.25;;;-143.60;57.91
68329;BME280;55182;56.864;60.554;2023-04-24T09:52:34;74698.28;;;-143.60;57.93
68329;BME280;55182;56.864;60.554;2023-04-24T09:54:59;74704.28;;;-143.60;58.25
68329;BME280;55182;56.864;60.554;2023-04-24T09:57:25;74722.38;;;-143.60;59.32
68329;BME280;55182;56.864;60.554;2023-04-24T09:59:52;74738.44;;;-143.60;59.44
68329;BME280;55182;56.864;60.554;2023-04-24T10:02:19;74728.41;;;-143.60;59.92
68329;BME280;55182;56.864;60.554;2023-04-24T10:04:54;74720.38;;;-143.60;60.22
68329;BME280;55182;56.864;60.554;2023-04-24T10:07:19;74742.47;;;-143.60;61.14
68329;BME280;55182;56.864;60.554;2023-04-24T10:09:45;74760.53;;;-143.60;61.83
68329;BME280;55182;56.864;60.554;2023-04-24T10:12:10;74778.63;;;-143.60;62.41
68329;BME280;55182;56.864;60.554;2023-04-24T10:14:36;74768.56;;;-143.60;62.26
68329;BME280;55182;56.864;60.554;2023-04-24T10:17:01;74748.50;;;-143.60;62.07
68329;BME280;55182;56.864;60.554;2023-04-24T10:19:28;74738.44;;;-143.60;60.75
68329;BME280;55182;56.864;60.554;2023-04-24T10:21:54;74718.34;;;-143.60;60.37
68329;BME280;55182;56.864;60.554;2023-04-24T10:24:21;74716.34;;;-143.60;60.78
68329;BME280;55182;56.864;60.554;2023-04-24T10:26:46;74718.34;;;-143.60;61.23
68329;BME280;55182;56.864;60.554;2023-04-24T10:29:13;74724.38;;;-143.60;61.35
68329;BME280;55182;56.864;60.554;2023-04-24T10:31:39;74804.75;;;-143.60;63.53
68329;BME280;55182;56.864;60.554;2023-04-24T10:34:05;74865.00;;;-143.60;66.92
68329;BME280;55182;56.864;60.554;2023-04-24T10:36:31;74875.03;;;-143.60;67.11
68329;BME280;55182;56.864;60.554;2023-04-24T10:38:58;74873.03;;;-143.60;67.46
68329;BME280;55182;56.864;60.554;2023-04-24T10:41:25;74875.03;;;-143.60;67.66
68329;BME280;55182;56.864;60.554;2023-04-24T10:44:04;74860.97;;;-143.60;67.29
68329;BME280;55182;56.864;60.554;2023-04-24T10:46:30;74850.94;;;-143.60;67.43
68329;BME280;55182;56.864;60.554;2023-04-24T10:48:56;74824.81;;;-143.60;66.18
68329;BME280;55182;56.864;60.554;2023-04-24T10:51:24;74800.72;;;-143.60;64.67
68329;BME280;55182;56.864;60.554;2023-04-24T10:53:50;74788.66;;;-143.60;64.52
68329;BME280;55182;56.864;60.554;2023-04-24T10:56:16;74768.56;;;-143.60;63.46
68329;BME280;55182;56.864;60.554;2023-04-24T10:58:43;74750.50;;;-143.60;62.72
68329;BME280;55182;56.864;60.554;2023-04-24T11:01:08;74744.47;;;-143.60;62.73
68329;BME280;55182;56.864;60.554;2023-04-24T11:03:34;74724.38;;;-143.60;62.01
68329;BME280;55182;56.864;60.554;2023-04-24T11:06:01;74708.31;;;-143.60;61.13
68329;BME280;55182;56.864;60.554;2023-04-24T11:08:32;74704.28;;;-143.60;61.71
68329;BME280;55182;56.864;60.554;2023-04-24T11:11:08;74696.25;;;-143.60;60.56
68329;BME280;55182;56.864;60.554;2023-04-24T11:18:51;74631.97;;;-143.60;59.23
68329;BME280;55182;56.864;60.554;2023-04-24T11:21:17;74621.94;;;-143.60;58.15
68329;BME280;55182;56.864;60.554;2023-04-24T11:23:43;74615.91;;;-143.60;58.21
68329;BME280;55182;56.864;60.554;2023-04-24T11:26:14;74617.91;;;-143.60;57.56
68329;BME280;55182;56.864;60.554;2023-04-24T11:28:46;74615.91;;;-143.60;57.11
68329;BME280;55182;56.864;60.554;2023-04-24T11:33:55;74581.75;;;-143.60;56.67
68329;BME280;55182;56.864;60.554;2023-04-24T11:36:21;74577.75;;;-143.60;56.30
68329;BME280;55182;56.864;60.554;2023-04-24T11:38:47;74585.78;;;-143.60;55.54
68329;BME280;55182;56.864;60.554;2023-04-24T11:41:12;74573.72;;;-143.60;55.54
68329;BME280;55182;56.864;60.554;2023-04-24T11:43:38;74551.63;;;-143.60;55.64
68329;BME280;55182;56.864;60.554;2023-04-24T11:46:04;74537.56;;;-143.60;54.69
68329;BME280;55182;56.864;60.554;2023-04-24T11:48:33;74531.53;;;-143.60;54.32
68329;BME280;55182;56.864;60.554;2023-04-24T11:51:01;74525.53;;;-143.60;53.96
68329;BME280;55182;56.864;60.554;2023-04-24T11:53:26;74527.53;;;-143.60;54.46
68329;BME280;55182;56.864;60.554;2023-04-24T11:55:52;74531.53;;;-143.60;53.72
68329;BME280;55182;56.864;60.554;2023-04-24T11:58:20;74519.50;;;-143.60;53.86
68329;BME280;55182;56.864;60.554;2023-04-24T12:00:46;74493.38;;;-143.60;52.91
68329;BME280;55182;56.864;60.554;2023-04-24T12:03:20;74441.16;;;-143.60;52.27
68329;BME280;55182;56.864;60.554;2023-04-24T12:05:46;74358.81;;;-143.60;50.87
68329;BME280;55182;56.864;60.554;2023-04-24T12:08:11;74274.44;;;-143.60;48.76
68329;BME280;55182;56.864;60.554;2023-04-24T12:10:37;74230.25;;;-143.60;47.91
68329;BME280;55182;56.864;60.554;2023-04-24T12:13:02;74202.13;;;-143.60;47.36
68329;BME280;55182;56.864;60.554;2023-04-24T12:15:28;74202.13;;;-143.60;46.80
68329;BME280;55182;56.864;60.554;2023-04-24T12:17:54;74214.19;;;-143.60;46.91
68329;BME280;55182;56.864;60.554;2023-04-24T12:20:30;74224.22;;;-143.60;46.85
68329;BME280;55182;56.864;60.554;2023-04-24T12:22:56;74238.28;;;-143.60;47.23
68329;BME280;55182;56.864;60.554;2023-04-24T12:25:26;74210.19;;;-143.60;47.04
68329;BME280;55182;56.864;60.554;2023-04-24T12:27:53;74176.03;;;-143.60;45.46
68329;BME280;55182;56.864;60.554;2023-04-24T12:30:18;74105.72;;;-143.60;44.70
68329;BME280;55182;56.864;60.554;2023-04-24T12:32:48;74007.31;;;-143.60;44.00
68329;BME280;55182;56.864;60.554;2023-04-24T12:35:14;73856.69;;;-143.60;42.12